Slinger, Wisconsin
Current Conditions -  °F | °C
As of 4:55 PM on Thursday 20 Nov 2014 (Local Time) from KETB Reporting Station
Clear Clear  
Wind Chill:   Ceiling: Unl
Heat Index: 19°   Visibility: 10mi
Dew Point:   Wind: 8mph
Humidity: 42%   Direction: 290°WNW
Pressure: 30.08"   Gusts: 16mph
Location:  43.33°N, 88.29°W
Report Text: KETB 202255Z AUTO 29007G14KT 10SM CLR M07/M18 A3008 RMK AO2
Loading
Personal Weather Stations






























Interactive Weather Map New forecast layout! Learn more

10-Day Weather Forecast

Advertisements
Track Severe Weather on mobile